sensor_id;sensor_type;location;lat;lon;timestamp;pressure;altitude;pressure_sealevel;temperature;humidity
45285;BME280;31026;43.780;25.948;2023-04-28T00:02:22;101172.53;;;18.76;63.61
45285;BME280;31026;43.780;25.948;2023-04-28T00:04:51;101174.03;;;18.68;63.60
45285;BME280;31026;43.780;25.948;2023-04-28T00:07:22;101188.38;;;18.79;63.51
45285;BME280;31026;43.780;25.948;2023-04-28T00:09:50;101171.59;;;18.65;63.48
45285;BME280;31026;43.780;25.948;2023-04-28T00:12:19;101180.13;;;18.71;63.51
45285;BME280;31026;43.780;25.948;2023-04-28T00:14:47;101198.00;;;18.70;63.87
45285;BME280;31026;43.780;25.948;2023-04-28T00:17:16;101199.59;;;18.73;63.63
45285;BME280;31026;43.780;25.948;2023-04-28T00:19:44;101196.69;;;18.64;63.68
45285;BME280;31026;43.780;25.948;2023-04-28T00:22:13;101209.09;;;18.65;63.91
45285;BME280;31026;43.780;25.948;2023-04-28T00:24:45;101207.25;;;18.77;63.49
45285;BME280;31026;43.780;25.948;2023-04-28T00:27:13;101232.81;;;18.70;63.56
45285;BME280;31026;43.780;25.948;2023-04-28T00:29:45;101213.94;;;18.72;63.69
45285;BME280;31026;43.780;25.948;2023-04-28T00:32:13;101215.91;;;18.69;63.62
45285;BME280;31026;43.780;25.948;2023-04-28T00:34:41;101229.44;;;18.57;63.89
45285;BME280;31026;43.780;25.948;2023-04-28T00:37:09;101219.41;;;18.70;63.91
45285;BME280;31026;43.780;25.948;2023-04-28T00:39:38;101222.72;;;18.74;63.53
45285;BME280;31026;43.780;25.948;2023-04-28T00:42:08;101220.91;;;18.63;63.66
45285;BME280;31026;43.780;25.948;2023-04-28T00:44:37;101216.38;;;18.63;63.80
45285;BME280;31026;43.780;25.948;2023-04-28T00:47:05;101207.41;;;18.64;63.66
45285;BME280;31026;43.780;25.948;2023-04-28T00:49:36;101213.09;;;18.71;63.87
45285;BME280;31026;43.780;25.948;2023-04-28T00:52:05;101217.84;;;18.67;63.67
45285;BME280;31026;43.780;25.948;2023-04-28T00:54:33;101214.22;;;18.68;63.61
45285;BME280;31026;43.780;25.948;2023-04-28T00:57:02;101209.34;;;18.62;63.80
45285;BME280;31026;43.780;25.948;2023-04-28T00:59:33;101222.38;;;18.67;63.52
45285;BME280;31026;43.780;25.948;2023-04-28T01:02:02;101217.25;;;18.64;63.86
45285;BME280;31026;43.780;25.948;2023-04-28T01:04:31;101229.78;;;18.52;63.92
45285;BME280;31026;43.780;25.948;2023-04-28T01:07:00;101225.75;;;18.58;63.84
45285;BME280;31026;43.780;25.948;2023-04-28T01:09:29;101218.34;;;18.61;63.93
45285;BME280;31026;43.780;25.948;2023-04-28T01:11:57;101225.41;;;18.62;63.58
45285;BME280;31026;43.780;25.948;2023-04-28T01:14:26;101216.50;;;18.73;63.68
45285;BME280;31026;43.780;25.948;2023-04-28T01:16:56;101224.53;;;18.62;63.77
45285;BME280;31026;43.780;25.948;2023-04-28T01:19:25;101238.09;;;18.60;63.75
45285;BME280;31026;43.780;25.948;2023-04-28T01:21:54;101230.88;;;18.61;63.73
45285;BME280;31026;43.780;25.948;2023-04-28T01:24:24;101231.72;;;18.61;63.93
45285;BME280;31026;43.780;25.948;2023-04-28T01:26:53;101226.16;;;18.64;63.62
45285;BME280;31026;43.780;25.948;2023-04-28T01:29:21;101221.50;;;18.55;63.97
45285;BME280;31026;43.780;25.948;2023-04-28T01:31:49;101229.31;;;18.58;63.89
45285;BME280;31026;43.780;25.948;2023-04-28T01:34:18;101219.06;;;18.52;64.04
45285;BME280;31026;43.780;25.948;2023-04-28T01:36:46;101227.38;;;18.60;63.57
45285;BME280;31026;43.780;25.948;2023-04-28T01:39:14;101220.78;;;18.64;63.78
45285;BME280;31026;43.780;25.948;2023-04-28T01:41:45;101237.34;;;18.58;64.06
45285;BME280;31026;43.780;25.948;2023-04-28T01:44:14;101222.13;;;18.59;64.05
45285;BME280;31026;43.780;25.948;2023-04-28T01:46:42;101226.16;;;18.98;63.27
45285;BME280;31026;43.780;25.948;2023-04-28T01:49:10;101227.75;;;19.44;61.62
45285;BME280;31026;43.780;25.948;2023-04-28T01:51:39;101230.00;;;20.14;59.99
45285;BME280;31026;43.780;25.948;2023-04-28T01:54:07;101214.47;;;20.17;60.02
45285;BME280;31026;43.780;25.948;2023-04-28T01:56:35;101214.13;;;20.32;59.41
45285;BME280;31026;43.780;25.948;2023-04-28T01:59:06;101229.63;;;20.49;59.14
45285;BME280;31026;43.780;25.948;2023-04-28T02:01:35;101221.72;;;20.48;59.08
45285;BME280;31026;43.780;25.948;2023-04-28T02:04:03;101214.06;;;20.53;59.16
45285;BME280;31026;43.780;25.948;2023-04-28T02:06:31;101229.34;;;20.52;59.23
45285;BME280;31026;43.780;25.948;2023-04-28T02:09:00;101223.44;;;20.58;58.97
45285;BME280;31026;43.780;25.948;2023-04-28T02:11:28;101242.88;;;20.62;58.89
45285;BME280;31026;43.780;25.948;2023-04-28T02:13:56;101218.41;;;20.65;59.00
45285;BME280;31026;43.780;25.948;2023-04-28T02:16:27;101232.41;;;20.69;58.82
45285;BME280;31026;43.780;25.948;2023-04-28T02:18:55;101243.88;;;20.71;58.98
45285;BME280;31026;43.780;25.948;2023-04-28T02:21:24;101230.19;;;20.74;58.83
45285;BME280;31026;43.780;25.948;2023-04-28T02:23:52;101237.53;;;20.72;58.76
45285;BME280;31026;43.780;25.948;2023-04-28T02:26:20;101222.13;;;20.74;58.87
45285;BME280;31026;43.780;25.948;2023-04-28T02:28:50;101225.78;;;20.73;58.89
45285;BME280;31026;43.780;25.948;2023-04-28T02:31:18;101231.88;;;20.75;59.02
45285;BME280;31026;43.780;25.948;2023-04-28T02:33:49;101235.16;;;20.78;58.89
45285;BME280;31026;43.780;25.948;2023-04-28T02:36:17;101251.44;;;20.86;58.82
45285;BME280;31026;43.780;25.948;2023-04-28T02:38:46;101232.91;;;20.83;58.86
45285;BME280;31026;43.780;25.948;2023-04-28T02:41:14;101235.91;;;20.90;58.59
45285;BME280;31026;43.780;25.948;2023-04-28T02:43:42;101251.31;;;20.88;58.47
45285;BME280;31026;43.780;25.948;2023-04-28T02:46:11;101245.13;;;20.97;58.62
45285;BME280;31026;43.780;25.948;2023-04-28T02:48:39;101244.84;;;21.00;58.39
45285;BME280;31026;43.780;25.948;2023-04-28T02:51:10;101232.66;;;20.96;58.47
45285;BME280;31026;43.780;25.948;2023-04-28T02:53:38;101236.75;;;20.91;58.55
45285;BME280;31026;43.780;25.948;2023-04-28T02:56:06;101257.81;;;20.85;58.97
45285;BME280;31026;43.780;25.948;2023-04-28T02:58:35;101264.13;;;20.75;59.14
45285;BME280;31026;43.780;25.948;2023-04-28T03:01:03;101268.38;;;20.68;59.25
45285;BME280;31026;43.780;25.948;2023-04-28T03:03:31;101268.75;;;20.63;59.54
45285;BME280;31026;43.780;25.948;2023-04-28T03:06:00;101273.75;;;20.68;59.39
45285;BME280;31026;43.780;25.948;2023-04-28T03:08:31;101281.50;;;20.71;59.37
45285;BME280;31026;43.780;25.948;2023-04-28T03:10:59;101262.97;;;20.68;59.42
45285;BME280;31026;43.780;25.948;2023-04-28T03:13:27;101292.56;;;20.68;59.48
45285;BME280;31026;43.780;25.948;2023-04-28T03:15:56;101281.66;;;20.69;59.54
45285;BME280;31026;43.780;25.948;2023-04-28T03:18:24;101282.63;;;20.68;59.26
45285;BME280;31026;43.780;25.948;2023-04-28T03:20:52;101294.56;;;20.75;59.25
45285;BME280;31026;43.780;25.948;2023-04-28T03:23:21;101289.56;;;20.71;59.39
45285;BME280;31026;43.780;25.948;2023-04-28T03:25:52;101293.13;;;20.71;59.51
45285;BME280;31026;43.780;25.948;2023-04-28T03:28:20;101318.88;;;20.74;59.61
45285;BME280;31026;43.780;25.948;2023-04-28T03:30:49;101301.75;;;20.75;59.34
45285;BME280;31026;43.780;25.948;2023-04-28T03:33:17;101309.81;;;20.75;59.40
45285;BME280;31026;43.780;25.948;2023-04-28T03:35:45;101314.09;;;20.77;59.32
45285;BME280;31026;43.780;25.948;2023-04-28T03:38:14;101310.41;;;20.78;59.53
45285;BME280;31026;43.780;25.948;2023-04-28T03:40:42;101325.56;;;20.79;59.51
45285;BME280;31026;43.780;25.948;2023-04-28T03:43:13;101339.13;;;20.78;59.52
45285;BME280;31026;43.780;25.948;2023-04-28T03:45:41;101336.13;;;20.71;59.75
45285;BME280;31026;43.780;25.948;2023-04-28T03:48:10;101328.19;;;20.70;59.74
45285;BME280;31026;43.780;25.948;2023-04-28T03:50:38;101339.56;;;20.83;59.61
45285;BME280;31026;43.780;25.948;2023-04-28T03:53:07;101345.59;;;20.96;59.18
45285;BME280;31026;43.780;25.948;2023-04-28T03:55:35;101335.88;;;21.05;58.78
45285;BME280;31026;43.780;25.948;2023-04-28T03:58:03;101342.16;;;21.15;58.66
45285;BME280;31026;43.780;25.948;2023-04-28T04:00:34;101355.38;;;20.97;58.92
45285;BME280;31026;43.780;25.948;2023-04-28T04:03:03;101354.66;;;20.53;60.04
45285;BME280;31026;43.780;25.948;2023-04-28T04:05:31;101346.78;;;20.19;60.93
45285;BME280;31026;43.780;25.948;2023-04-28T04:07:59;101365.19;;;19.92;61.74
45285;BME280;31026;43.780;25.948;2023-04-28T04:10:28;101350.34;;;19.65;62.60
45285;BME280;31026;43.780;25.948;2023-04-28T04:12:56;101364.75;;;19.53;62.90
45285;BME280;31026;43.780;25.948;2023-04-28T04:15:24;101367.44;;;19.41;63.18
45285;BME280;31026;43.780;25.948;2023-04-28T04:17:55;101376.09;;;19.34;63.42
45285;BME280;31026;43.780;25.948;2023-04-28T04:20:23;101367.47;;;19.30;63.31
45285;BME280;31026;43.780;25.948;2023-04-28T04:22:51;101375.88;;;19.25;63.52
45285;BME280;31026;43.780;25.948;2023-04-28T04:25:20;101381.72;;;19.31;63.48
45285;BME280;31026;43.780;25.948;2023-04-28T04:27:48;101376.00;;;19.24;63.77
45285;BME280;31026;43.780;25.948;2023-04-28T04:30:16;101374.03;;;19.60;62.95
45285;BME280;31026;43.780;25.948;2023-04-28T04:32:45;101371.56;;;19.79;62.23
45285;BME280;31026;43.780;25.948;2023-04-28T04:35:16;101377.91;;;19.78;62.35
45285;BME280;31026;43.780;25.948;2023-04-28T04:37:44;101374.50;;;19.76;62.18
45285;BME280;31026;43.780;25.948;2023-04-28T04:40:12;101370.22;;;19.62;62.69
45285;BME280;31026;43.780;25.948;2023-04-28T04:42:41;101380.63;;;19.56;62.74
45285;BME280;31026;43.780;25.948;2023-04-28T04:45:09;101404.28;;;19.51;63.03
45285;BME280;31026;43.780;25.948;2023-04-28T04:47:37;101389.97;;;19.61;62.83
45285;BME280;31026;43.780;25.948;2023-04-28T04:50:06;101397.88;;;19.97;62.68
45285;BME280;31026;43.780;25.948;2023-04-28T04:52:37;101396.69;;;19.78;62.72
45285;BME280;31026;43.780;25.948;2023-04-28T04:55:06;101408.19;;;19.58;62.94
45285;BME280;31026;43.780;25.948;2023-04-28T04:57:35;101413.28;;;19.50;63.07
45285;BME280;31026;43.780;25.948;2023-04-28T05:00:04;101406.44;;;19.68;62.09
45285;BME280;31026;43.780;25.948;2023-04-28T05:02:33;101402.31;;;19.75;61.21
45285;BME280;31026;43.780;25.948;2023-04-28T05:05:01;101413.16;;;19.51;62.56
45285;BME280;31026;43.780;25.948;2023-04-28T05:07:29;101408.28;;;19.79;62.18
45285;BME280;31026;43.780;25.948;2023-04-28T05:10:00;101403.72;;;20.02;61.28
45285;BME280;31026;43.780;25.948;2023-04-28T05:12:28;101398.75;;;19.86;61.93
45285;BME280;31026;43.780;25.948;2023-04-28T05:14:57;101404.75;;;19.90;61.82
45285;BME280;31026;43.780;25.948;2023-04-28T05:17:25;101404.97;;;19.86;61.91
45285;BME280;31026;43.780;25.948;2023-04-28T05:19:53;101421.69;;;19.79;61.81
45285;BME280;31026;43.780;25.948;2023-04-28T05:22:21;101429.13;;;19.75;61.71
45285;BME280;31026;43.780;25.948;2023-04-28T05:24:50;101426.69;;;19.61;62.57
45285;BME280;31026;43.780;25.948;2023-04-28T05:27:21;101408.25;;;19.90;61.74
45285;BME280;31026;43.780;25.948;2023-04-28T05:29:49;101418.09;;;20.01;61.42
45285;BME280;31026;43.780;25.948;2023-04-28T05:32:17;101414.34;;;19.92;61.53
45285;BME280;31026;43.780;25.948;2023-04-28T05:34:46;101431.09;;;19.84;61.85
45285;BME280;31026;43.780;25.948;2023-04-28T05:37:14;101434.72;;;19.83;61.67
45285;BME280;31026;43.780;25.948;2023-04-28T05:39:42;101428.16;;;19.88;61.45
45285;BME280;31026;43.780;25.948;2023-04-28T05:42:10;101442.28;;;19.67;61.92
45285;BME280;31026;43.780;25.948;2023-04-28T05:44:41;101434.28;;;19.78;62.00
45285;BME280;31026;43.780;25.948;2023-04-28T05:47:10;101413.56;;;20.13;61.17
45285;BME280;31026;43.780;25.948;2023-04-28T05:49:38;101430.81;;;19.99;61.45
45285;BME280;31026;43.780;25.948;2023-04-28T05:52:06;101441.81;;;19.84;61.93
45285;BME280;31026;43.780;25.948;2023-04-28T05:54:34;101441.47;;;19.78;61.98
45285;BME280;31026;43.780;25.948;2023-04-28T05:57:03;101451.06;;;19.69;62.06
45285;BME280;31026;43.780;25.948;2023-04-28T05:59:32;101455.47;;;19.70;61.96
45285;BME280;31026;43.780;25.948;2023-04-28T06:02:03;101443.28;;;19.66;62.33
45285;BME280;31026;43.780;25.948;2023-04-28T06:04:31;101452.66;;;20.05;61.25
45285;BME280;31026;43.780;25.948;2023-04-28T06:07:00;101454.94;;;20.10;61.38
45285;BME280;31026;43.780;25.948;2023-04-28T06:09:28;101462.78;;;19.91;61.67
45285;BME280;31026;43.780;25.948;2023-04-28T06:11:56;101468.78;;;19.83;61.92
45285;BME280;31026;43.780;25.948;2023-04-28T06:14:25;101467.94;;;19.82;62.08
45285;BME280;31026;43.780;25.948;2023-04-28T06:16:53;101469.53;;;19.74;62.02
45285;BME280;31026;43.780;25.948;2023-04-28T06:19:24;101460.59;;;19.62;62.57
45285;BME280;31026;43.780;25.948;2023-04-28T06:21:52;101470.84;;;19.91;61.97
45285;BME280;31026;43.780;25.948;2023-04-28T06:24:20;101447.63;;;20.12;60.99
45285;BME280;31026;43.780;25.948;2023-04-28T06:26:49;101471.84;;;19.90;61.62
45285;BME280;31026;43.780;25.948;2023-04-28T06:29:17;101457.94;;;19.84;62.04
45285;BME280;31026;43.780;25.948;2023-04-28T06:31:48;101469.88;;;19.80;61.80
45285;BME280;31026;43.780;25.948;2023-04-28T06:34:16;101474.50;;;19.67;62.02
45285;BME280;31026;43.780;25.948;2023-04-28T06:36:47;101477.56;;;19.62;62.14
45285;BME280;31026;43.780;25.948;2023-04-28T06:39:16;101468.41;;;19.65;62.36
45285;BME280;31026;43.780;25.948;2023-04-28T06:41:44;101462.31;;;19.85;61.58
45285;BME280;31026;43.780;25.948;2023-04-28T06:44:12;101461.59;;;19.72;62.22
45285;BME280;31026;43.780;25.948;2023-04-28T06:46:41;101403.78;;;19.12;62.28
45285;BME280;31026;43.780;25.948;2023-04-28T06:49:09;101469.97;;;19.45;62.82
45285;BME280;31026;43.780;25.948;2023-04-28T06:51:37;101463.41;;;19.60;62.39
45285;BME280;31026;43.780;25.948;2023-04-28T06:54:08;101471.09;;;19.65;62.17
45285;BME280;31026;43.780;25.948;2023-04-28T06:56:37;101463.53;;;19.59;62.54
45285;BME280;31026;43.780;25.948;2023-04-28T06:59:06;101473.50;;;19.45;62.99
45285;BME280;31026;43.780;25.948;2023-04-28T07:01:34;101465.84;;;19.52;62.19
45285;BME280;31026;43.780;25.948;2023-04-28T07:04:03;101471.34;;;19.51;62.52
45285;BME280;31026;43.780;25.948;2023-04-28T07:06:31;101467.44;;;19.32;62.57
45285;BME280;31026;43.780;25.948;2023-04-28T07:09:00;101472.31;;;19.38;62.71
45285;BME280;31026;43.780;25.948;2023-04-28T07:11:31;101473.53;;;19.68;62.30
45285;BME280;31026;43.780;25.948;2023-04-28T07:14:00;101465.75;;;19.54;62.47
45285;BME280;31026;43.780;25.948;2023-04-28T07:16:28;101479.25;;;19.41;63.01
45285;BME280;31026;43.780;25.948;2023-04-28T07:18:56;101475.00;;;19.38;63.09
45285;BME280;31026;43.780;25.948;2023-04-28T07:21:25;101473.25;;;19.37;63.11
45285;BME280;31026;43.780;25.948;2023-04-28T07:23:53;101480.47;;;19.48;63.01
45285;BME280;31026;43.780;25.948;2023-04-28T07:26:22;101462.56;;;19.48;62.88
45285;BME280;31026;43.780;25.948;2023-04-28T07:28:53;101480.84;;;19.55;63.05
45285;BME280;31026;43.780;25.948;2023-04-28T07:31:21;101469.38;;;19.53;63.15
45285;BME280;31026;43.780;25.948;2023-04-28T07:33:50;101468.28;;;19.44;66.74
45285;BME280;31026;43.780;25.948;2023-04-28T07:36:18;101455.00;;;19.42;67.77
45285;BME280;31026;43.780;25.948;2023-04-28T07:38:47;101467.44;;;19.55;68.75
45285;BME280;31026;43.780;25.948;2023-04-28T07:41:15;101451.56;;;19.52;68.91
45285;BME280;31026;43.780;25.948;2023-04-28T07:43:44;101460.09;;;19.45;68.56
45285;BME280;31026;43.780;25.948;2023-04-28T07:46:15;101463.06;;;19.54;67.93
45285;BME280;31026;43.780;25.948;2023-04-28T07:48:43;101458.75;;;19.51;67.74
45285;BME280;31026;43.780;25.948;2023-04-28T07:51:11;101456.31;;;19.59;68.38
45285;BME280;31026;43.780;25.948;2023-04-28T07:53:40;101461.34;;;19.53;66.92
45285;BME280;31026;43.780;25.948;2023-04-28T07:56:09;101460.72;;;19.26;67.68
45285;BME280;31026;43.780;25.948;2023-04-28T07:58:37;101464.63;;;19.22;65.28
45285;BME280;31026;43.780;25.948;2023-04-28T08:01:05;101472.28;;;19.27;65.30
45285;BME280;31026;43.780;25.948;2023-04-28T08:03:36;101454.50;;;19.26;64.97
45285;BME280;31026;43.780;25.948;2023-04-28T08:06:05;101465.22;;;19.26;64.25
45285;BME280;31026;43.780;25.948;2023-04-28T08:08:34;101454.72;;;19.23;63.02
45285;BME280;31026;43.780;25.948;2023-04-28T08:11:02;101460.47;;;19.18;62.02
45285;BME280;31026;43.780;25.948;2023-04-28T08:13:32;101444.25;;;19.08;60.99
45285;BME280;31026;43.780;25.948;2023-04-28T08:16:00;101438.88;;;19.08;60.83
45285;BME280;31026;43.780;25.948;2023-04-28T08:18:28;101451.53;;;19.06;60.78
45285;BME280;31026;43.780;25.948;2023-04-28T08:20:59;101447.16;;;19.05;60.74
45285;BME280;31026;43.780;25.948;2023-04-28T08:23:28;101451.53;;;19.06;59.96
45285;BME280;31026;43.780;25.948;2023-04-28T08:25:56;101448.38;;;19.13;59.53
45285;BME280;31026;43.780;25.948;2023-04-28T08:28:24;101447.28;;;19.15;59.46
45285;BME280;31026;43.780;25.948;2023-04-28T08:30:53;101450.44;;;19.09;60.19
45285;BME280;31026;43.780;25.948;2023-04-28T08:33:22;101440.31;;;19.01;60.25
45285;BME280;31026;43.780;25.948;2023-04-28T08:35:51;101436.16;;;18.97;60.24
45285;BME280;31026;43.780;25.948;2023-04-28T08:38:22;101435.81;;;19.02;60.72
45285;BME280;31026;43.780;25.948;2023-04-28T08:40:50;101419.88;;;19.00;60.77
45285;BME280;31026;43.780;25.948;2023-04-28T08:43:19;101435.81;;;19.02;60.71
45285;BME280;31026;43.780;25.948;2023-04-28T08:45:48;101427.41;;;19.18;59.54
45285;BME280;31026;43.780;25.948;2023-04-28T08:48:17;101426.09;;;19.12;60.65
45285;BME280;31026;43.780;25.948;2023-04-28T08:50:48;101423.50;;;18.99;60.91
45285;BME280;31026;43.780;25.948;2023-04-28T08:53:20;101417.19;;;19.00;60.49
45285;BME280;31026;43.780;25.948;2023-04-28T08:55:53;101419.50;;;19.05;60.36
45285;BME280;31026;43.780;25.948;2023-04-28T08:58:22;101417.66;;;19.05;60.15
45285;BME280;31026;43.780;25.948;2023-04-28T09:00:51;101419.97;;;18.99;60.35
45285;BME280;31026;43.780;25.948;2023-04-28T09:03:20;101418.25;;;18.98;60.42
45285;BME280;31026;43.780;25.948;2023-04-28T09:05:56;101421.66;;;19.00;60.65
45285;BME280;31026;43.780;25.948;2023-04-28T09:08:24;101409.63;;;18.94;60.86
45285;BME280;31026;43.780;25.948;2023-04-28T09:11:08;101416.22;;;19.13;60.46
45285;BME280;31026;43.780;25.948;2023-04-28T09:13:37;101414.03;;;19.29;60.23
45285;BME280;31026;43.780;25.948;2023-04-28T09:16:07;101406.72;;;19.31;60.88
45285;BME280;31026;43.780;25.948;2023-04-28T09:18:35;101416.09;;;19.25;60.55
45285;BME280;31026;43.780;25.948;2023-04-28T09:21:04;101387.94;;;19.20;60.35
45285;BME280;31026;43.780;25.948;2023-04-28T09:23:33;101394.78;;;19.24;60.90
45285;BME280;31026;43.780;25.948;2023-04-28T09:26:02;101392.84;;;19.26;60.69
45285;BME280;31026;43.780;25.948;2023-04-28T09:28:34;101384.53;;;19.29;60.61
45285;BME280;31026;43.780;25.948;2023-04-28T09:31:03;101391.38;;;19.22;60.66
45285;BME280;31026;43.780;25.948;2023-04-28T09:33:31;101374.28;;;19.12;60.82
45285;BME280;31026;43.780;25.948;2023-04-28T09:35:59;101370.03;;;19.09;61.01
45285;BME280;31026;43.780;25.948;2023-04-28T09:38:28;101378.91;;;19.10;60.57
45285;BME280;31026;43.780;25.948;2023-04-28T09:40:56;101394.03;;;19.11;60.65
45285;BME280;31026;43.780;25.948;2023-04-28T09:43:25;101378.78;;;19.11;59.40
45285;BME280;31026;43.780;25.948;2023-04-28T09:45:57;101375.63;;;19.17;59.40
45285;BME280;31026;43.780;25.948;2023-04-28T09:48:26;101377.59;;;19.26;58.78
45285;BME280;31026;43.780;25.948;2023-04-28T09:50:55;101372.56;;;19.33;58.64
45285;BME280;31026;43.780;25.948;2023-04-28T09:53:24;101370.16;;;19.30;58.75
45285;BME280;31026;43.780;25.948;2023-04-28T09:55:52;101366.97;;;19.14;55.37
45285;BME280;31026;43.780;25.948;2023-04-28T09:58:21;101361.50;;;19.04;55.80
45285;BME280;31026;43.780;25.948;2023-04-28T10:00:51;101371.84;;;19.08;55.94
45285;BME280;31026;43.780;25.948;2023-04-28T10:03:24;101368.94;;;19.23;56.66
45285;BME280;31026;43.780;25.948;2023-04-28T10:05:53;101382.06;;;19.03;57.36
45285;BME280;31026;43.780;25.948;2023-04-28T10:08:22;101363.56;;;19.00;57.66
45285;BME280;31026;43.780;25.948;2023-04-28T10:10:51;101358.84;;;19.04;57.70
45285;BME280;31026;43.780;25.948;2023-04-28T10:13:21;101364.31;;;19.02;57.70
45285;BME280;31026;43.780;25.948;2023-04-28T10:15:49;101359.66;;;18.93;57.75
45285;BME280;31026;43.780;25.948;2023-04-28T10:18:19;101354.91;;;18.97;57.66
45285;BME280;31026;43.780;25.948;2023-04-28T10:20:52;101356.50;;;18.99;54.13
45285;BME280;31026;43.780;25.948;2023-04-28T10:26:08;101363.81;;;18.97;57.33
45285;BME280;31026;43.780;25.948;2023-04-28T10:28:43;101364.28;;;18.91;57.54
45285;BME280;31026;43.780;25.948;2023-04-28T10:31:13;101359.19;;;18.88;57.59
45285;BME280;31026;43.780;25.948;2023-04-28T10:33:42;101366.00;;;18.92;57.19
45285;BME280;31026;43.780;25.948;2023-04-28T10:36:17;101373.06;;;18.93;57.50
45285;BME280;31026;43.780;25.948;2023-04-28T10:39:11;101355.75;;;18.86;54.82
45285;BME280;31026;43.780;25.948;2023-04-28T10:41:41;101349.66;;;18.84;56.01
45285;BME280;31026;43.780;25.948;2023-04-28T10:47:02;101357.84;;;19.16;55.21
45285;BME280;31026;43.780;25.948;2023-04-28T10:57:47;101349.91;;;19.15;56.79
45285;BME280;31026;43.780;25.948;2023-04-28T11:00:36;101344.22;;;19.08;57.03
45285;BME280;31026;43.780;25.948;2023-04-28T11:03:05;101344.78;;;19.12;56.57
45285;BME280;31026;43.780;25.948;2023-04-28T11:05:33;101339.06;;;19.05;57.10
45285;BME280;31026;43.780;25.948;2023-04-28T11:13:43;101340.88;;;19.16;57.30
45285;BME280;31026;43.780;25.948;2023-04-28T11:16:12;101322.56;;;19.43;56.66
45285;BME280;31026;43.780;25.948;2023-04-28T11:18:51;101319.31;;;19.28;57.24
45285;BME280;31026;43.780;25.948;2023-04-28T11:21:20;101318.84;;;19.12;57.95
45285;BME280;31026;43.780;25.948;2023-04-28T11:23:49;101332.72;;;19.17;58.08
45285;BME280;31026;43.780;25.948;2023-04-28T11:26:17;101326.16;;;19.10;58.53
45285;BME280;31026;43.780;25.948;2023-04-28T11:28:54;101324.81;;;19.16;58.42
45285;BME280;31026;43.780;25.948;2023-04-28T11:31:23;101311.91;;;19.21;58.34
45285;BME280;31026;43.780;25.948;2023-04-28T11:33:58;101326.63;;;19.26;58.36
45285;BME280;31026;43.780;25.948;2023-04-28T11:36:28;101320.16;;;19.18;58.72
45285;BME280;31026;43.780;25.948;2023-04-28T11:38:57;101318.25;;;19.08;59.31
45285;BME280;31026;43.780;25.948;2023-04-28T11:41:25;101321.88;;;19.07;59.08
45285;BME280;31026;43.780;25.948;2023-04-28T11:43:56;101321.16;;;19.05;59.28
45285;BME280;31026;43.780;25.948;2023-04-28T11:46:25;101316.53;;;19.07;59.35
45285;BME280;31026;43.780;25.948;2023-04-28T11:49:00;101318.47;;;19.17;59.20
45285;BME280;31026;43.780;25.948;2023-04-28T11:51:32;101327.97;;;19.10;59.81
45285;BME280;31026;43.780;25.948;2023-04-28T11:54:01;101320.09;;;19.08;59.80
45285;BME280;31026;43.780;25.948;2023-04-28T11:56:31;101313.63;;;19.22;59.33
45285;BME280;31026;43.780;25.948;2023-04-28T11:59:07;101313.34;;;19.25;59.27
45285;BME280;31026;43.780;25.948;2023-04-28T12:01:43;101321.16;;;19.17;59.49
45285;BME280;31026;43.780;25.948;2023-04-28T12:04:12;101309.91;;;19.45;58.90
45285;BME280;31026;43.780;25.948;2023-04-28T12:06:41;101306.16;;;19.37;59.10
45285;BME280;31026;43.780;25.948;2023-04-28T12:09:18;101302.00;;;19.33;59.31
45285;BME280;31026;43.780;25.948;2023-04-28T12:11:53;101300.03;;;19.46;58.85
45285;BME280;31026;43.780;25.948;2023-04-28T12:14:24;101292.34;;;19.53;58.88
45285;BME280;31026;43.780;25.948;2023-04-28T12:16:53;101301.69;;;19.70;58.60
45285;BME280;31026;43.780;25.948;2023-04-28T12:19:22;101289.31;;;19.46;59.12
45285;BME280;31026;43.780;25.948;2023-04-28T12:21:57;101282.50;;;19.42;59.23
45285;BME280;31026;43.780;25.948;2023-04-28T12:24:26;101270.16;;;19.39;59.27
45285;BME280;31026;43.780;25.948;2023-04-28T12:26:54;101270.69;;;19.65;58.62
45285;BME280;31026;43.780;25.948;2023-04-28T12:29:43;101262.59;;;19.56;58.74
45285;BME280;31026;43.780;25.948;2023-04-28T12:32:13;101264.06;;;19.37;59.41
45285;BME280;31026;43.780;25.948;2023-04-28T12:34:43;101264.84;;;19.28;59.95
45285;BME280;31026;43.780;25.948;2023-04-28T12:37:11;101254.88;;;19.19;60.08
45285;BME280;31026;43.780;25.948;2023-04-28T12:39:40;101241.47;;;19.19;60.00
45285;BME280;31026;43.780;25.948;2023-04-28T12:42:09;101260.00;;;19.22;59.96
45285;BME280;31026;43.780;25.948;2023-04-28T12:44:37;101243.63;;;19.25;60.16
45285;BME280;31026;43.780;25.948;2023-04-28T12:47:08;101248.16;;;19.13;60.34
45285;BME280;31026;43.780;25.948;2023-04-28T12:49:37;101246.84;;;19.07;60.79
45285;BME280;31026;43.780;25.948;2023-04-28T12:52:06;101247.31;;;19.01;60.90
45285;BME280;31026;43.780;25.948;2023-04-28T12:54:34;101241.84;;;19.03;60.93
45285;BME280;31026;43.780;25.948;2023-04-28T12:57:03;101250.25;;;19.10;60.69
45285;BME280;31026;43.780;25.948;2023-04-28T12:59:32;101236.81;;;19.21;60.33
45285;BME280;31026;43.780;25.948;2023-04-28T13:02:00;101241.72;;;19.04;60.89
45285;BME280;31026;43.780;25.948;2023-04-28T13:04:31;101230.75;;;19.07;60.73
45285;BME280;31026;43.780;25.948;2023-04-28T13:07:00;101224.81;;;18.93;61.16
45285;BME280;31026;43.780;25.948;2023-04-28T13:09:28;101238.94;;;19.06;60.69
45285;BME280;31026;43.780;25.948;2023-04-28T13:11:56;101233.06;;;19.12;61.04